createdAt,value
2023-05-10T00:00:42.576Z,12.400
2023-05-10T00:01:27.589Z,12.400
2023-05-10T00:02:28.127Z,12.300
2023-05-10T00:03:42.377Z,12.300
2023-05-10T00:04:36.783Z,12.300
2023-05-10T00:05:28.132Z,12.400
2023-05-10T00:06:22.055Z,12.400
2023-05-10T00:07:45.953Z,12.400
2023-05-10T00:08:39.419Z,12.400
2023-05-10T00:09:31.756Z,12.400
2023-05-10T00:10:25.694Z,12.400
2023-05-10T00:11:38.916Z,12.400
2023-05-10T00:12:21.903Z,12.400
2023-05-10T00:13:24.858Z,12.300
2023-05-10T00:14:49.451Z,12.400
2023-05-10T00:16:35.396Z,12.400
2023-05-10T00:17:28.392Z,12.400
2023-05-10T00:18:22.269Z,12.400
2023-05-10T00:19:36.098Z,12.400
2023-05-10T00:20:29.373Z,12.300
2023-05-10T00:21:22.512Z,12.300
2023-05-10T00:22:47.457Z,12.300
2023-05-10T00:23:38.357Z,12.300
2023-05-10T00:24:33.594Z,12.300
2023-05-10T00:25:27.020Z,12.400
2023-05-10T00:26:40.731Z,12.400
2023-05-10T00:27:34.157Z,12.400
2023-05-10T00:28:26.644Z,12.350
2023-05-10T00:29:24.338Z,12.300
2023-05-10T00:30:38.148Z,12.300
2023-05-10T00:31:37.394Z,12.300
2023-05-10T00:32:30.372Z,12.400
2023-05-10T00:33:22.200Z,12.400
2023-05-10T00:34:37.121Z,12.300
2023-05-10T00:35:28.201Z,12.300
2023-05-10T00:36:22.841Z,12.300
2023-05-10T00:37:48.930Z,12.300
2023-05-10T00:38:42.083Z,12.200
2023-05-10T00:39:37.217Z,12.200
2023-05-10T00:40:22.278Z,12.200
2023-05-10T00:41:42.214Z,12.200
2023-05-10T00:43:28.888Z,12.200
2023-05-10T00:44:19.998Z,12.200
2023-05-10T00:45:46.075Z,12.200
2023-05-10T00:46:27.356Z,12.200
2023-05-10T00:47:32.164Z,12.200
2023-05-10T00:48:25.694Z,12.200
2023-05-10T00:49:37.908Z,12.200
2023-05-10T00:50:30.829Z,12.200
2023-05-10T00:51:23.733Z,12.200
2023-05-10T00:52:32.101Z,12.200
2023-05-10T00:53:45.098Z,12.200
2023-05-10T00:55:29.731Z,12.200
2023-05-10T00:56:20.158Z,12.200
2023-05-10T00:57:22.883Z,12.200
2023-05-10T00:58:27.716Z,12.200
2023-05-10T00:59:21.285Z,12.200
2023-05-10T01:00:54.004Z,12.200
2023-05-10T01:07:55.338Z,12.200
2023-05-10T01:08:31.405Z,12.200
2023-05-10T01:09:34.831Z,12.200
2023-05-10T01:10:33.341Z,12.200
2023-05-10T01:11:23.854Z,12.200
2023-05-10T01:12:37.154Z,12.200
2023-05-10T01:13:29.024Z,12.200
2023-05-10T01:14:21.637Z,12.200
2023-05-10T01:15:39.056Z,12.200
2023-05-10T01:16:40.067Z,12.200
2023-05-10T01:17:34.578Z,12.200
2023-05-10T01:18:27.295Z,12.200
2023-05-10T01:19:39.679Z,12.200
2023-05-10T01:20:30.610Z,12.200
2023-05-10T01:21:26.266Z,12.200
2023-05-10T01:22:52.679Z,12.200
2023-05-10T01:23:46.381Z,12.200
2023-05-10T01:24:40.140Z,12.200
2023-05-10T01:25:24.462Z,12.200
2023-05-10T01:26:24.694Z,12.200
2023-05-10T01:27:36.993Z,12.200
2023-05-10T01:28:31.574Z,12.200
2023-05-10T01:29:22.624Z,12.200
2023-05-10T01:30:49.752Z,12.200
2023-05-10T01:31:28.407Z,12.200
2023-05-10T01:32:36.691Z,12.200
2023-05-10T01:33:29.225Z,12.200
2023-05-10T01:34:20.708Z,12.200
2023-05-10T01:35:35.260Z,12.200
2023-05-10T01:36:27.188Z,12.200
2023-05-10T01:37:19.496Z,12.200
2023-05-10T01:38:47.584Z,12.200
2023-05-10T01:40:33.173Z,12.200
2023-05-10T01:41:24.984Z,12.300
2023-05-10T01:42:23.665Z,12.300
2023-05-10T01:43:31.113Z,12.300
2023-05-10T01:44:24.219Z,12.300
2023-05-10T01:45:52.266Z,12.300
2023-05-10T01:46:45.482Z,12.300
2023-05-10T01:47:36.035Z,12.300
2023-05-10T01:48:30.419Z,12.300
2023-05-10T01:50:34.500Z,12.300
2023-05-10T01:51:29.862Z,12.300
2023-05-10T01:52:20.790Z,12.300
2023-05-10T01:53:21.403Z,12.300
2023-05-10T01:54:34.323Z,12.300
2023-05-10T01:55:34.048Z,12.300
2023-05-10T01:56:26.963Z,12.300
2023-05-10T01:57:40.650Z,12.300
2023-05-10T01:58:31.882Z,12.300
2023-05-10T01:59:25.393Z,12.300
2023-05-10T02:00:40.477Z,12.300
2023-05-10T02:01:46.419Z,12.300
2023-05-10T02:02:39.235Z,12.300
2023-05-10T02:03:31.891Z,12.300
2023-05-10T02:04:23.240Z,12.300
2023-05-10T02:05:30.340Z,12.300
2023-05-10T02:06:29.120Z,12.300
2023-05-10T02:07:23.377Z,12.300
2023-05-10T02:08:50.664Z,12.300
2023-05-10T02:09:43.241Z,12.300
2023-05-10T02:10:24.772Z,12.300
2023-05-10T02:11:28.934Z,12.300
2023-05-10T02:12:22.543Z,12.300
2023-05-10T02:13:32.651Z,12.300
2023-05-10T02:14:25.557Z,12.300
2023-05-10T02:15:54.881Z,12.300
2023-05-10T02:16:29.493Z,12.300
2023-05-10T02:18:33.850Z,12.300
2023-05-10T02:19:26.277Z,12.300
2023-05-10T02:20:38.130Z,12.300
2023-05-10T02:21:19.788Z,12.300
2023-05-10T02:22:22.390Z,12.300
2023-05-10T02:23:46.815Z,12.300
2023-05-10T02:24:45.670Z,12.300
2023-05-10T02:25:38.076Z,12.300
2023-05-10T02:26:29.092Z,12.300
2023-05-10T02:27:26.075Z,12.300
2023-05-10T02:28:33.865Z,12.300
2023-05-10T02:29:27.189Z,12.300
2023-05-10T02:30:20.799Z,12.400
2023-05-10T02:31:49.124Z,12.400
2023-05-10T02:32:41.903Z,12.400
2023-05-10T02:33:31.451Z,12.400
2023-05-10T02:34:27.760Z,12.400
2023-05-10T02:35:38.460Z,12.400
2023-05-10T02:36:32.712Z,12.400
2023-05-10T02:37:24.710Z,12.400
2023-05-10T02:38:21.542Z,12.400
2023-05-10T02:39:36.954Z,12.400
2023-05-10T02:41:32.561Z,12.400
2023-05-10T02:42:24.410Z,12.400
2023-05-10T02:43:35.158Z,12.400
2023-05-10T02:44:28.121Z,12.400
2023-05-10T02:45:20.589Z,12.400
2023-05-10T02:46:49.980Z,12.400
2023-05-10T02:47:43.043Z,12.400
2023-05-10T02:48:35.978Z,12.400
2023-05-10T02:49:27.102Z,12.400
2023-05-10T02:50:22.176Z,12.400
2023-05-10T02:51:32.253Z,12.400
2023-05-10T02:52:25.941Z,12.400
2023-05-10T02:53:53.939Z,12.400
2023-05-10T02:54:46.959Z,12.400
2023-05-10T02:55:25.145Z,12.400
2023-05-10T02:56:33.268Z,12.400
2023-05-10T02:57:26.940Z,12.400
2023-05-10T02:58:36.614Z,12.400
2023-05-10T03:00:21.772Z,12.400
2023-05-10T03:01:30.448Z,12.400
2023-05-10T03:02:43.583Z,12.400
2023-05-10T03:04:30.596Z,12.400
2023-05-10T03:05:22.996Z,12.400
2023-05-10T03:06:20.330Z,12.400
2023-05-10T03:07:25.807Z,12.400
2023-05-10T03:08:47.770Z,12.350
2023-05-10T03:09:48.823Z,12.300
2023-05-10T03:10:41.506Z,12.300
2023-05-10T03:11:33.332Z,12.300
2023-05-10T03:12:27.524Z,12.300
2023-05-10T03:14:31.730Z,12.300
2023-05-10T03:15:23.342Z,12.300
2023-05-10T03:16:51.289Z,12.300
2023-05-10T03:17:45.371Z,12.300
2023-05-10T03:18:31.711Z,12.300
2023-05-10T03:19:31.658Z,12.300
2023-05-10T03:20:24.861Z,12.300
2023-05-10T03:21:36.110Z,12.300
2023-05-10T03:22:28.947Z,12.300
2023-05-10T03:23:22.389Z,12.300
2023-05-10T03:24:36.577Z,12.300
2023-05-10T03:25:44.234Z,12.300
2023-05-10T03:26:36.728Z,12.300
2023-05-10T03:27:28.498Z,12.300
2023-05-10T03:28:20.732Z,12.300
2023-05-10T03:29:27.497Z,12.300
2023-05-10T03:30:23.676Z,12.300
2023-05-10T03:31:54.569Z,12.250
2023-05-10T03:32:47.500Z,12.200
2023-05-10T03:33:40.544Z,12.200
2023-05-10T03:34:21.650Z,12.200
2023-05-10T03:35:26.565Z,12.200
2023-05-10T03:36:34.800Z,12.200
2023-05-10T03:37:27.915Z,12.200
2023-05-10T03:38:21.561Z,12.150
2023-05-10T03:41:39.296Z,12.100
2023-05-10T03:42:30.235Z,12.100
2023-05-10T03:43:23.263Z,12.100
2023-05-10T03:44:32.597Z,12.100
2023-05-10T03:45:25.151Z,12.000
2023-05-10T03:46:29.452Z,12.000
2023-05-10T03:47:44.162Z,12.000
2023-05-10T03:48:41.126Z,12.000
2023-05-10T03:49:35.471Z,12.000
2023-05-10T03:50:26.144Z,12.100
2023-05-10T03:51:23.092Z,12.100
2023-05-10T03:52:29.093Z,12.100
2023-05-10T03:53:21.173Z,12.000
2023-05-10T03:54:53.121Z,12.000
2023-05-10T03:55:46.116Z,12.000
2023-05-10T03:56:55.420Z,11.900
2023-05-10T03:58:25.278Z,11.900
2023-05-10T03:59:32.666Z,11.900
2023-05-10T04:00:26.933Z,11.800
2023-05-10T04:01:56.943Z,11.800
2023-05-10T04:02:49.999Z,11.800
2023-05-10T04:03:33.000Z,11.800
2023-05-10T04:04:36.178Z,11.800
2023-05-10T04:05:28.685Z,11.700
2023-05-10T04:06:21.714Z,11.700
2023-05-10T04:07:29.866Z,11.700
2023-05-10T04:08:22.958Z,11.700
2023-05-10T04:09:35.847Z,11.750
2023-05-10T04:10:48.243Z,11.700
2023-05-10T04:11:41.196Z,11.700
2023-05-10T04:12:33.490Z,11.700
2023-05-10T04:13:24.772Z,11.700
2023-05-10T04:14:27.873Z,11.700
2023-05-10T04:15:27.461Z,11.600
2023-05-10T04:16:21.214Z,11.600
2023-05-10T04:17:51.421Z,11.600
2023-05-10T04:18:44.456Z,11.600
2023-05-10T04:19:22.343Z,11.500
2023-05-10T04:20:30.351Z,11.600
2023-05-10T04:21:39.046Z,11.600
2023-05-10T04:23:24.391Z,11.500
2023-05-10T04:24:56.044Z,11.500
2023-05-10T04:25:26.281Z,11.500
2023-05-10T04:26:41.003Z,11.500
2023-05-10T04:28:27.999Z,11.500
2023-05-10T04:29:36.326Z,11.500
2023-05-10T04:30:27.535Z,11.400
2023-05-10T04:31:21.330Z,11.400
2023-05-10T04:32:44.916Z,11.400
2023-05-10T04:33:45.825Z,11.400
2023-05-10T04:34:40.484Z,11.400
2023-05-10T04:35:30.193Z,11.400
2023-05-10T04:36:25.576Z,11.400
2023-05-10T04:38:24.808Z,11.300
2023-05-10T04:39:56.960Z,11.300
2023-05-10T04:40:49.937Z,11.300
2023-05-10T04:41:42.520Z,11.300
2023-05-10T04:42:29.292Z,11.300
2023-05-10T04:43:29.102Z,11.300
2023-05-10T04:44:21.744Z,11.200
2023-05-10T04:45:30.641Z,11.200
2023-05-10T04:46:21.864Z,11.200
2023-05-10T04:47:53.692Z,11.200
2023-05-10T04:48:33.385Z,11.200
2023-05-10T04:49:40.568Z,11.200
2023-05-10T04:50:34.020Z,11.200
2023-05-10T04:51:26.306Z,11.200
2023-05-10T04:52:32.919Z,11.200
2023-05-10T04:53:25.878Z,11.200
2023-05-10T04:54:39.988Z,11.150
2023-05-10T04:55:50.991Z,11.200
2023-05-10T04:56:45.158Z,11.200
2023-05-10T04:57:37.263Z,11.200
2023-05-10T04:58:28.903Z,11.200
2023-05-10T04:59:23.536Z,11.100
2023-05-10T05:00:29.586Z,11.100
2023-05-10T05:01:24.321Z,11.100
2023-05-10T05:05:34.070Z,11.000
2023-05-10T05:06:28.214Z,11.000
2023-05-10T05:07:33.676Z,11.000
2023-05-10T05:08:26.661Z,11.000
2023-05-10T05:09:19.292Z,10.950
2023-05-10T05:10:26.234Z,11.000
2023-05-10T05:11:41.439Z,11.000
2023-05-10T05:12:38.434Z,11.000
2023-05-10T05:13:31.341Z,10.900
2023-05-10T05:14:23.948Z,10.900
2023-05-10T05:15:30.758Z,10.900
2023-05-10T05:16:24.156Z,10.900
2023-05-10T05:17:45.656Z,10.900
2023-05-10T05:18:49.587Z,10.900
2023-05-10T05:19:42.475Z,10.900
2023-05-10T05:20:35.378Z,10.900
2023-05-10T05:21:24.513Z,10.900
2023-05-10T05:22:21.146Z,10.900
2023-05-10T05:23:27.692Z,10.900
2023-05-10T05:24:22.814Z,10.900
2023-05-10T05:25:54.019Z,10.900
2023-05-10T05:26:46.857Z,10.800
2023-05-10T05:27:28.917Z,10.800
2023-05-10T05:28:32.939Z,10.900
2023-05-10T05:29:24.848Z,10.900
2023-05-10T05:30:31.949Z,10.900
2023-05-10T05:31:24.961Z,10.900
2023-05-10T05:32:20.666Z,10.850
2023-05-10T05:33:34.772Z,10.900
2023-05-10T05:34:43.990Z,10.900
2023-05-10T05:35:37.404Z,10.900
2023-05-10T05:36:30.880Z,11.000
2023-05-10T05:37:21.870Z,11.000
2023-05-10T05:38:25.595Z,11.000
2023-05-10T05:39:21.556Z,11.000
2023-05-10T05:40:54.222Z,11.050
2023-05-10T05:42:42.394Z,11.100
2023-05-10T05:43:36.695Z,11.100
2023-05-10T05:44:31.690Z,11.100
2023-05-10T05:46:25.728Z,11.100
2023-05-10T05:47:59.797Z,11.100
2023-05-10T05:48:52.894Z,11.000
2023-05-10T05:49:24.019Z,11.000
2023-05-10T05:50:38.487Z,11.000
2023-05-10T05:52:24.164Z,11.100
2023-05-10T05:53:29.832Z,11.000
2023-05-10T05:54:22.844Z,11.000
2023-05-10T05:55:26.925Z,11.000
2023-05-10T05:56:41.323Z,11.100
2023-05-10T05:57:43.152Z,11.100
2023-05-10T05:58:36.097Z,11.100
2023-05-10T05:59:27.036Z,11.100
2023-05-10T06:00:21.694Z,11.200
2023-05-10T06:01:26.939Z,11.200
2023-05-10T06:02:20.007Z,11.200
2023-05-10T06:03:53.815Z,11.200
2023-05-10T06:04:46.902Z,11.200
2023-05-10T06:05:39.579Z,11.200
2023-05-10T06:06:25.846Z,11.200
2023-05-10T06:07:25.924Z,11.200
2023-05-10T06:08:30.541Z,11.200
2023-05-10T06:09:25.568Z,11.200
2023-05-10T06:10:59.671Z,11.400
2023-05-10T06:11:52.277Z,11.400
2023-05-10T06:12:30.700Z,11.300
2023-05-10T06:13:37.582Z,11.300
2023-05-10T06:14:23.580Z,11.300
2023-05-10T06:15:21.998Z,11.300
2023-05-10T06:16:27.623Z,11.400
2023-05-10T06:17:21.514Z,11.400
2023-05-10T06:18:35.908Z,11.400
2023-05-10T06:19:48.385Z,11.400
2023-05-10T06:20:41.392Z,11.400
2023-05-10T06:21:34.242Z,11.500
2023-05-10T06:22:26.457Z,11.500
2023-05-10T06:23:25.930Z,11.500
2023-05-10T06:24:24.775Z,11.500
2023-05-10T06:25:53.435Z,11.600
2023-05-10T06:27:49.071Z,11.700
2023-05-10T06:28:37.113Z,11.700
2023-05-10T06:29:32.063Z,11.600
2023-05-10T06:30:24.860Z,11.700
2023-05-10T06:31:28.060Z,11.700
2023-05-10T06:32:21.817Z,11.700
2023-05-10T06:33:56.994Z,11.700
2023-05-10T06:34:22.592Z,11.700
2023-05-10T06:35:38.306Z,11.700
2023-05-10T06:36:35.818Z,11.800
2023-05-10T06:37:28.941Z,11.900
2023-05-10T06:38:20.778Z,11.900
2023-05-10T06:39:26.727Z,11.900
2023-05-10T06:40:28.800Z,11.900
2023-05-10T06:41:42.637Z,11.900
2023-05-10T06:42:46.515Z,11.900
2023-05-10T06:43:29.778Z,11.900
2023-05-10T06:44:31.683Z,11.900
2023-05-10T06:45:25.756Z,11.900
2023-05-10T06:46:30.315Z,11.900
2023-05-10T06:47:22.532Z,11.900
2023-05-10T06:49:01.275Z,11.900
2023-05-10T06:49:47.380Z,11.900
2023-05-10T06:50:44.795Z,11.900
2023-05-10T06:51:26.298Z,11.900
2023-05-10T06:52:31.548Z,12.000
2023-05-10T06:53:23.242Z,12.000
2023-05-10T06:54:26.373Z,12.000
2023-05-10T06:55:20.034Z,12.100
2023-05-10T06:56:55.522Z,12.100
2023-05-10T06:57:32.238Z,12.100
2023-05-10T06:58:41.539Z,12.100
2023-05-10T06:59:34.456Z,12.100
2023-05-10T07:00:27.531Z,12.100
2023-05-10T07:01:31.742Z,12.200
2023-05-10T07:02:23.950Z,12.200
2023-05-10T07:03:33.555Z,12.150
2023-05-10T07:04:50.150Z,12.200
2023-05-10T07:05:45.937Z,12.200
2023-05-10T07:06:32.393Z,12.200
2023-05-10T07:07:46.270Z,12.300
2023-05-10T07:09:29.232Z,12.200
2023-05-10T07:10:20.853Z,12.200
2023-05-10T07:11:57.127Z,12.200
2023-05-10T07:12:50.294Z,12.200
2023-05-10T07:13:41.036Z,12.300
2023-05-10T07:14:35.167Z,12.300
2023-05-10T07:16:22.019Z,12.300
2023-05-10T07:17:24.223Z,12.300
2023-05-10T07:18:44.389Z,12.300
2023-05-10T07:19:53.756Z,12.350
2023-05-10T07:21:40.733Z,12.400
2023-05-10T07:22:33.104Z,12.400
2023-05-10T07:23:24.361Z,12.500
2023-05-10T07:24:29.726Z,12.500
2023-05-10T07:25:21.242Z,12.500
2023-05-10T07:26:41.817Z,12.500
2023-05-10T07:27:49.334Z,12.500
2023-05-10T07:28:44.882Z,12.500
2023-05-10T07:29:38.647Z,12.500
2023-05-10T07:30:22.876Z,12.500
2023-05-10T07:31:21.679Z,12.500
2023-05-10T07:32:25.801Z,12.500
2023-05-10T07:34:02.350Z,12.500
2023-05-10T07:34:55.708Z,12.500
2023-05-10T07:35:45.691Z,12.500
2023-05-10T07:36:41.733Z,12.600
2023-05-10T07:37:34.879Z,12.600
2023-05-10T07:38:27.722Z,12.600
2023-05-10T07:39:29.807Z,12.500
2023-05-10T07:40:22.969Z,12.600
2023-05-10T07:41:21.850Z,12.550
2023-05-10T07:42:32.841Z,12.500
2023-05-10T07:43:26.279Z,12.500
2023-05-10T07:45:32.194Z,12.500
2023-05-10T07:46:22.731Z,12.600
2023-05-10T07:47:23.019Z,12.600
2023-05-10T07:48:19.976Z,12.600
2023-05-10T07:49:30.159Z,12.600
2023-05-10T07:50:42.401Z,12.600
2023-05-10T07:51:37.819Z,12.600
2023-05-10T07:52:34.060Z,12.600
2023-05-10T07:53:29.280Z,12.600
2023-05-10T07:54:20.795Z,12.700
2023-05-10T07:55:23.526Z,12.700
2023-05-10T07:56:31.266Z,12.700
2023-05-10T07:57:55.420Z,12.700
2023-05-10T07:58:20.199Z,12.800
2023-05-10T07:59:34.269Z,12.800
2023-05-10T08:00:29.704Z,12.800
2023-05-10T08:01:25.411Z,12.800
2023-05-10T08:03:20.502Z,12.900
2023-05-10T08:04:25.836Z,12.900
2023-05-10T08:05:40.331Z,12.900
2023-05-10T08:06:43.573Z,13.000
2023-05-10T08:07:39.720Z,13.000
2023-05-10T08:08:30.187Z,13.000
2023-05-10T08:09:21.862Z,13.000
2023-05-10T08:10:27.109Z,13.000
2023-05-10T08:11:26.678Z,13.000
2023-05-10T08:12:51.550Z,13.000
2023-05-10T08:13:48.489Z,13.000
2023-05-10T08:15:25.575Z,13.000
2023-05-10T08:16:22.257Z,13.000
2023-05-10T08:17:28.902Z,13.000
2023-05-10T08:18:23.636Z,13.000
2023-05-10T08:19:59.153Z,13.000
2023-05-10T08:20:47.288Z,13.000
2023-05-10T08:21:28.888Z,13.000
2023-05-10T08:22:41.689Z,13.000
2023-05-10T08:23:31.435Z,12.900
2023-05-10T08:24:24.757Z,12.900
2023-05-10T08:25:25.467Z,12.900
2023-05-10T08:26:21.948Z,12.900
2023-05-10T08:27:31.781Z,12.900
2023-05-10T08:28:46.553Z,12.900
2023-05-10T08:29:49.632Z,12.900
2023-05-10T08:30:35.659Z,12.900
2023-05-10T08:31:36.358Z,12.900
2023-05-10T08:33:22.388Z,12.900
2023-05-10T08:34:32.737Z,12.900
2023-05-10T08:35:24.643Z,12.900
2023-05-10T08:36:46.625Z,12.900
2023-05-10T08:37:21.583Z,12.900
2023-05-10T08:38:32.598Z,13.000
2023-05-10T08:40:26.379Z,13.000
2023-05-10T08:41:20.495Z,13.000
2023-05-10T08:42:44.142Z,13.000
2023-05-10T08:43:22.263Z,13.000
2023-05-10T08:44:35.671Z,13.000
2023-05-10T08:45:36.230Z,13.100
2023-05-10T08:46:29.537Z,13.100
2023-05-10T08:47:21.613Z,13.100
2023-05-10T08:48:23.609Z,13.100
2023-05-10T08:49:28.485Z,13.100
2023-05-10T08:50:40.519Z,13.100
2023-05-10T08:51:48.313Z,13.200
2023-05-10T08:52:41.621Z,13.200
2023-05-10T08:53:34.269Z,13.200
2023-05-10T08:54:26.148Z,13.200
2023-05-10T08:55:27.409Z,13.200
2023-05-10T08:56:21.053Z,13.200
2023-05-10T08:58:00.046Z,13.250
2023-05-10T08:59:29.944Z,13.300
2023-05-10T09:00:24.626Z,13.300
2023-05-10T09:01:31.961Z,13.300
2023-05-10T09:02:23.155Z,13.300
2023-05-10T09:03:25.293Z,13.400
2023-05-10T09:04:25.221Z,13.400
2023-05-10T09:05:33.689Z,13.400
2023-05-10T09:06:31.821Z,13.400
2023-05-10T09:07:26.307Z,13.400
2023-05-10T09:08:23.729Z,13.500
2023-05-10T09:09:28.768Z,13.500
2023-05-10T09:10:20.358Z,13.500
2023-05-10T09:11:23.805Z,13.500
2023-05-10T09:12:34.717Z,13.500
2023-05-10T09:13:30.220Z,13.550
2023-05-10T09:14:27.725Z,13.600
2023-05-10T09:15:22.679Z,13.600
2023-05-10T09:16:31.556Z,13.600
2023-05-10T09:17:26.885Z,13.600
2023-05-10T09:18:27.833Z,13.600
2023-05-10T09:19:36.504Z,13.600
2023-05-10T09:20:30.021Z,13.700
2023-05-10T09:21:41.850Z,13.700
2023-05-10T09:22:42.679Z,13.700
2023-05-10T09:23:29.996Z,13.700
2023-05-10T09:24:29.911Z,13.700
2023-05-10T09:26:24.690Z,13.700
2023-05-10T09:27:29.630Z,13.700
2023-05-10T09:28:22.086Z,13.700
2023-05-10T09:29:22.140Z,13.700
2023-05-10T09:30:40.619Z,13.800
2023-05-10T09:31:33.568Z,13.800
2023-05-10T09:32:25.374Z,13.800
2023-05-10T09:34:20.064Z,13.800
2023-05-10T09:35:28.725Z,13.800
2023-05-10T09:36:30.096Z,13.900
2023-05-10T09:37:33.849Z,13.900
2023-05-10T09:38:27.966Z,13.900
2023-05-10T09:39:24.027Z,13.900
2023-05-10T09:40:24.116Z,13.900
2023-05-10T09:41:24.964Z,13.900
2023-05-10T09:43:56.835Z,14.000
2023-05-10T09:44:49.914Z,14.000
2023-05-10T09:45:24.964Z,14.000
2023-05-10T09:46:42.793Z,14.000
2023-05-10T09:47:29.097Z,14.000
2023-05-10T09:49:20.835Z,14.000
2023-05-10T09:50:21.996Z,14.000
2023-05-10T09:51:21.234Z,14.000
2023-05-10T09:52:42.748Z,14.000
2023-05-10T09:53:25.041Z,14.000
2023-05-10T09:54:20.747Z,14.000
2023-05-10T09:55:24.455Z,14.000
2023-05-10T09:56:24.772Z,14.000
2023-05-10T09:57:35.226Z,14.000
2023-05-10T09:58:47.916Z,14.150
2023-05-10T09:59:30.190Z,14.300
2023-05-10T10:00:44.966Z,14.400
2023-05-10T10:01:37.304Z,14.400
2023-05-10T10:03:21.840Z,14.400
2023-05-10T10:04:21.478Z,14.400
2023-05-10T10:05:29.036Z,14.400
2023-05-10T10:06:30.337Z,14.300
2023-05-10T10:07:24.302Z,14.300
2023-05-10T10:08:32.459Z,14.300
2023-05-10T10:09:32.536Z,14.300
2023-05-10T10:11:22.078Z,14.300
2023-05-10T10:12:32.133Z,14.300
2023-05-10T10:13:23.255Z,14.300
2023-05-10T10:14:39.545Z,14.200
2023-05-10T10:15:35.609Z,14.300
2023-05-10T10:16:25.726Z,14.200
2023-05-10T10:17:26.268Z,14.300
2023-05-10T10:18:23.061Z,14.300
2023-05-10T10:20:20.727Z,14.300
2023-05-10T10:21:26.389Z,14.350
2023-05-10T10:22:20.933Z,14.400
2023-05-10T10:24:21.565Z,14.400
2023-05-10T10:25:22.403Z,14.400
2023-05-10T10:26:20.494Z,14.400
2023-05-10T10:27:19.762Z,14.400
2023-05-10T10:28:26.086Z,14.400
2023-05-10T10:29:19.970Z,14.400
2023-05-10T10:30:24.543Z,14.400
2023-05-10T10:31:27.994Z,14.400
2023-05-10T10:32:30.864Z,14.400
2023-05-10T10:33:28.961Z,14.400
2023-05-10T10:34:23.301Z,14.400
2023-05-10T10:35:23.833Z,14.400
2023-05-10T10:36:20.235Z,14.400
2023-05-10T10:37:30.192Z,14.400
2023-05-10T10:38:26.109Z,14.500
2023-05-10T10:39:23.871Z,14.500
2023-05-10T10:40:28.953Z,14.500
2023-05-10T10:41:23.341Z,14.600
2023-05-10T10:42:20.248Z,14.600
2023-05-10T10:43:21.002Z,14.600
2023-05-10T10:44:32.155Z,14.600
2023-05-10T10:45:26.213Z,14.600
2023-05-10T10:46:21.864Z,14.700
2023-05-10T10:47:28.668Z,14.700
2023-05-10T10:48:30.356Z,14.700
2023-05-10T10:49:25.416Z,14.700
2023-05-10T10:50:20.181Z,14.700
2023-05-10T10:51:31.203Z,14.700
2023-05-10T10:52:25.638Z,14.700
2023-05-10T10:53:23.513Z,14.800
2023-05-10T10:54:39.429Z,14.800
2023-05-10T10:55:31.802Z,14.800
2023-05-10T10:58:23.579Z,14.900
2023-05-10T10:59:26.452Z,14.900
2023-05-10T11:00:22.229Z,14.900
2023-05-10T11:01:34.069Z,14.900
2023-05-10T11:02:30.069Z,15.000
2023-05-10T11:03:24.879Z,14.900
2023-05-10T11:04:30.843Z,14.900
2023-05-10T11:06:28.238Z,14.900
2023-05-10T11:07:23.106Z,14.950
2023-05-10T11:08:32.419Z,14.900
2023-05-10T11:09:22.348Z,15.000
2023-05-10T11:10:24.504Z,15.000
2023-05-10T11:11:22.876Z,15.000
2023-05-10T11:12:23.354Z,15.000
2023-05-10T11:13:26.301Z,15.100
2023-05-10T11:14:24.187Z,15.100
2023-05-10T11:15:25.526Z,15.100
2023-05-10T11:16:29.580Z,15.100
2023-05-10T11:17:24.429Z,15.100
2023-05-10T11:18:20.456Z,15.100
2023-05-10T11:19:21.826Z,15.100
2023-05-10T11:20:20.879Z,15.100
2023-05-10T11:21:22.149Z,15.000
2023-05-10T11:22:34.697Z,15.000
2023-05-10T11:23:29.937Z,15.000
2023-05-10T11:24:25.597Z,15.000
2023-05-10T11:25:21.522Z,15.000
2023-05-10T11:26:22.757Z,15.000
2023-05-10T11:27:25.920Z,14.900
2023-05-10T11:28:22.328Z,14.900
2023-05-10T11:29:33.250Z,14.900
2023-05-10T11:30:28.183Z,14.900
2023-05-10T11:31:24.902Z,14.900
2023-05-10T11:32:20.577Z,14.900
2023-05-10T11:33:30.281Z,14.900
2023-05-10T11:34:23.584Z,14.900
2023-05-10T11:35:22.101Z,14.800
2023-05-10T11:36:34.241Z,14.800
2023-05-10T11:37:20.407Z,14.800
2023-05-10T11:38:25.564Z,14.800
2023-05-10T11:39:20.354Z,14.900
2023-05-10T11:40:29.970Z,14.900
2023-05-10T11:41:26.924Z,14.900
2023-05-10T11:43:25.708Z,14.900
2023-05-10T11:44:28.153Z,14.900
2023-05-10T11:45:24.271Z,14.950
2023-05-10T11:47:30.808Z,15.000
2023-05-10T11:48:26.275Z,15.000
2023-05-10T11:49:26.029Z,15.000
2023-05-10T11:51:27.987Z,15.000
2023-05-10T11:52:24.866Z,15.000
2023-05-10T11:53:20.178Z,15.000
2023-05-10T11:54:22.957Z,15.000
2023-05-10T11:55:25.913Z,15.100
2023-05-10T11:56:22.272Z,15.100
2023-05-10T11:57:28.199Z,15.100
2023-05-10T11:58:28.208Z,15.100
2023-05-10T11:59:24.026Z,15.100
2023-05-10T12:00:22.077Z,15.100
2023-05-10T12:01:31.510Z,15.100
2023-05-10T12:02:40.314Z,15.100
2023-05-10T12:03:23.489Z,15.200
2023-05-10T12:04:26.279Z,15.200
2023-05-10T12:05:23.333Z,15.200
2023-05-10T12:06:23.791Z,15.200
2023-05-10T12:07:19.952Z,15.250
2023-05-10T12:08:30.379Z,15.200
2023-05-10T12:09:42.716Z,15.200
2023-05-10T12:10:21.903Z,15.200
2023-05-10T12:11:23.269Z,15.200
2023-05-10T12:12:23.218Z,15.200
2023-05-10T12:14:20.012Z,15.300
2023-05-10T12:15:30.307Z,15.300
2023-05-10T12:16:28.151Z,15.300
2023-05-10T12:17:23.312Z,15.300
2023-05-10T12:18:34.756Z,15.300
2023-05-10T12:21:21.307Z,15.300
2023-05-10T12:22:20.846Z,15.300
2023-05-10T12:23:26.623Z,15.350
2023-05-10T12:24:22.472Z,15.400
2023-05-10T12:25:33.563Z,15.400
2023-05-10T12:26:28.196Z,15.400
2023-05-10T12:27:28.630Z,15.400
2023-05-10T12:29:31.531Z,15.500
2023-05-10T12:30:22.547Z,15.500
2023-05-10T12:31:24.167Z,15.500
2023-05-10T12:32:33.873Z,15.600
2023-05-10T12:33:28.493Z,15.600
2023-05-10T12:34:24.309Z,15.600
2023-05-10T12:35:24.441Z,15.600
2023-05-10T12:37:26.350Z,15.600
2023-05-10T12:38:22.510Z,15.600
2023-05-10T12:39:24.766Z,15.600
2023-05-10T12:41:24.513Z,15.700
2023-05-10T12:42:30.480Z,15.700
2023-05-10T12:43:22.820Z,15.700
2023-05-10T12:44:27.000Z,15.600
2023-05-10T12:45:22.255Z,15.600
2023-05-10T12:46:32.198Z,15.600
2023-05-10T12:47:28.829Z,15.600
2023-05-10T12:48:25.780Z,15.700
2023-05-10T12:49:20.313Z,15.700
2023-05-10T12:50:26.675Z,15.700
2023-05-10T12:52:22.397Z,15.700
2023-05-10T12:53:32.784Z,15.700
2023-05-10T12:54:28.089Z,15.700
2023-05-10T12:55:24.302Z,15.700
2023-05-10T12:56:20.344Z,15.800
2023-05-10T12:57:30.104Z,15.800
2023-05-10T12:58:36.028Z,15.800
2023-05-10T12:59:23.332Z,15.800
2023-05-10T13:00:32.497Z,15.900
2023-05-10T13:01:28.034Z,15.900
2023-05-10T13:02:24.683Z,16.000
2023-05-10T13:03:21.479Z,16.000
2023-05-10T13:04:36.011Z,16.000
2023-05-10T13:06:22.118Z,16.000
2023-05-10T13:07:21.563Z,16.000
2023-05-10T13:08:30.524Z,16.000
2023-05-10T13:10:21.932Z,16.100
2023-05-10T13:11:30.983Z,16.200
2023-05-10T13:12:31.306Z,16.200
2023-05-10T13:14:32.214Z,16.300
2023-05-10T13:16:25.343Z,16.350
2023-05-10T13:17:20.635Z,16.400
2023-05-10T13:18:30.653Z,16.500
2023-05-10T13:19:26.559Z,16.600
2023-05-10T13:20:22.000Z,16.600
2023-05-10T13:21:21.586Z,16.700
2023-05-10T13:22:39.293Z,16.800
2023-05-10T13:23:39.695Z,16.850
2023-05-10T13:24:21.922Z,16.900
2023-05-10T13:25:30.555Z,16.900
2023-05-10T13:26:26.239Z,17.000
2023-05-10T13:27:23.673Z,16.900
2023-05-10T13:28:24.350Z,16.800
2023-05-10T13:29:28.448Z,16.800
2023-05-10T13:30:24.595Z,16.800
2023-05-10T13:31:20.182Z,16.700